createdAt,value
2019-05-30T00:00:14.089Z,9.10
2019-05-30T00:02:31.316Z,9.87
2019-05-30T00:05:02.748Z,10.77
2019-05-30T00:07:33.974Z,10.33
2019-05-30T00:10:05.306Z,9.67
2019-05-30T00:12:36.182Z,9.90
2019-05-30T00:15:06.966Z,11.10
2019-05-30T00:17:37.985Z,9.30
2019-05-30T00:20:09.173Z,9.63
2019-05-30T00:22:39.929Z,10.50
2019-05-30T00:25:11.046Z,10.90
2019-05-30T00:27:41.745Z,10.97
2019-05-30T00:30:23.998Z,9.87
2019-05-30T00:32:45.280Z,10.93
2019-05-30T00:35:16.123Z,10.10
2019-05-30T00:37:46.719Z,10.90
2019-05-30T00:40:17.666Z,10.17
2019-05-30T00:42:48.304Z,10.47
2019-05-30T00:45:21.332Z,9.80
2019-05-30T00:47:51.983Z,9.37
2019-05-30T00:50:22.684Z,10.30
2019-05-30T00:52:53.743Z,10.40
2019-05-30T00:55:24.455Z,9.67
2019-05-30T00:57:54.979Z,10.23
2019-05-30T01:00:42.059Z,10.63
2019-05-30T01:03:01.316Z,10.27
2019-05-30T01:05:31.677Z,9.93
2019-05-30T01:08:03.322Z,10.13
2019-05-30T01:10:34.357Z,9.33
2019-05-30T01:13:07.232Z,11.10
2019-05-30T01:15:38.018Z,9.60
2019-05-30T01:18:08.680Z,10.40
2019-05-30T01:20:39.376Z,10.27
2019-05-30T01:23:10.391Z,10.67
2019-05-30T01:25:41.281Z,11.07
2019-05-30T01:28:11.988Z,10.47
2019-05-30T01:30:56.819Z,11.13
2019-05-30T01:33:14.965Z,12.10
2019-05-30T01:35:45.986Z,10.20
2019-05-30T01:38:16.955Z,11.13
2019-05-30T01:40:47.987Z,10.40
2019-05-30T01:43:18.650Z,9.93
2019-05-30T01:45:49.229Z,10.47
2019-05-30T01:48:19.839Z,11.17
2019-05-30T01:50:50.523Z,9.70
2019-05-30T01:53:21.028Z,10.90
2019-05-30T01:55:51.609Z,10.67
2019-05-30T01:58:22.329Z,10.10
2019-05-30T02:00:54.062Z,10.30
2019-05-30T02:03:26.073Z,9.97
2019-05-30T02:06:03.441Z,8.80
2019-05-30T02:08:35.201Z,9.17
2019-05-30T02:11:07.411Z,9.30
2019-05-30T02:13:38.260Z,9.20
2019-05-30T02:16:09.973Z,10.50
2019-05-30T02:18:41.215Z,9.10
2019-05-30T02:21:11.983Z,9.80
2019-05-30T02:23:43.541Z,9.87
2019-05-30T02:26:14.613Z,9.07
2019-05-30T02:28:45.774Z,8.90
2019-05-30T02:31:34.917Z,8.50
2019-05-30T02:33:48.905Z,9.27
2019-05-30T02:36:19.617Z,9.47
2019-05-30T02:38:50.314Z,9.13
2019-05-30T02:41:20.941Z,8.67
2019-05-30T02:43:51.685Z,7.60
2019-05-30T02:46:22.421Z,8.87
2019-05-30T02:48:59.090Z,8.33
2019-05-30T02:51:25.483Z,8.20
2019-05-30T02:53:57.243Z,9.13
2019-05-30T02:56:27.923Z,8.13
2019-05-30T02:58:58.441Z,7.40
2019-05-30T03:01:28.993Z,8.33
2019-05-30T03:04:01.649Z,9.20
2019-05-30T03:06:32.522Z,8.33
2019-05-30T03:09:06.222Z,8.00
2019-05-30T03:11:37.414Z,8.43
2019-05-30T03:14:12.124Z,7.90
2019-05-30T03:16:40.673Z,8.07
2019-05-30T03:19:12.689Z,9.37
2019-05-30T03:21:43.539Z,9.50
2019-05-30T03:24:15.193Z,9.33
2019-05-30T03:26:45.825Z,10.63
2019-05-30T03:29:16.381Z,9.87
2019-05-30T03:31:48.551Z,9.00
2019-05-30T03:34:27.924Z,9.23
2019-05-30T03:36:51.794Z,8.63
2019-05-30T03:39:22.583Z,9.50
2019-05-30T03:41:53.234Z,9.90
2019-05-30T03:44:23.757Z,10.50
2019-05-30T03:46:57.348Z,9.93
2019-05-30T03:49:31.834Z,9.73
2019-05-30T03:52:08.115Z,9.53
2019-05-30T03:54:39.411Z,9.50
2019-05-30T03:57:15.655Z,8.57
2019-05-30T03:59:59.371Z,9.33
2019-05-30T04:03:01.239Z,8.30
2019-05-30T04:05:37.213Z,8.40
2019-05-30T04:08:11.827Z,8.27
2019-05-30T04:10:43.884Z,9.90
2019-05-30T04:13:43.498Z,9.67
2019-05-30T04:16:15.794Z,9.30
2019-05-30T04:18:46.944Z,9.20
2019-05-30T04:21:20.994Z,8.30
2019-05-30T04:23:49.877Z,8.80
2019-05-30T04:26:20.481Z,9.43
2019-05-30T04:28:51.003Z,8.73
2019-05-30T04:31:22.039Z,7.87
2019-05-30T04:33:53.114Z,7.93
2019-05-30T04:36:23.772Z,7.37
2019-05-30T04:38:54.456Z,9.27
2019-05-30T04:41:25.052Z,9.67
2019-05-30T04:43:56.764Z,9.10
2019-05-30T04:46:27.319Z,9.27
2019-05-30T04:48:57.924Z,9.37
2019-05-30T04:51:28.645Z,8.97
2019-05-30T04:53:59.168Z,9.50
2019-05-30T04:56:29.835Z,9.13
2019-05-30T04:59:00.479Z,9.67
2019-05-30T05:01:31.525Z,10.27
2019-05-30T05:04:02.239Z,9.23
2019-05-30T05:06:32.967Z,8.83
2019-05-30T05:09:04.586Z,9.93
2019-05-30T05:11:35.255Z,10.33
2019-05-30T05:14:05.984Z,9.83
2019-05-30T05:16:36.917Z,10.10
2019-05-30T05:19:07.594Z,9.80
2019-05-30T05:21:38.234Z,9.73
2019-05-30T05:24:08.910Z,8.70
2019-05-30T05:26:39.613Z,9.50
2019-05-30T05:29:10.324Z,9.10
2019-05-30T05:31:41.075Z,10.00
2019-05-30T05:34:11.793Z,8.97
2019-05-30T05:36:42.470Z,8.97
2019-05-30T05:39:13.112Z,8.33
2019-05-30T05:41:43.740Z,7.23
2019-05-30T05:44:14.447Z,7.80
2019-05-30T05:46:45.217Z,8.80
2019-05-30T05:49:16.381Z,8.40
2019-05-30T05:51:48.297Z,8.93
2019-05-30T05:54:18.947Z,8.43
2019-05-30T05:56:49.613Z,9.53
2019-05-30T05:59:20.989Z,8.03
2019-05-30T06:01:51.671Z,8.25
2019-05-30T06:04:23.264Z,7.42
2019-05-30T06:06:54.175Z,7.50
2019-05-30T06:09:24.900Z,6.55
2019-05-30T06:11:56.493Z,6.85
2019-05-30T06:14:28.139Z,6.67
2019-05-30T06:16:58.874Z,6.05
2019-05-30T06:19:44.973Z,6.20
2019-05-30T06:22:01.801Z,6.25
2019-05-30T06:24:32.446Z,6.25
2019-05-30T06:27:02.979Z,5.25
2019-05-30T06:29:33.563Z,5.67
2019-05-30T06:32:04.168Z,4.78
2019-05-30T06:34:39.206Z,5.00
2019-05-30T06:37:07.281Z,5.62
2019-05-30T06:39:37.998Z,5.42
2019-05-30T06:42:09.017Z,5.42
2019-05-30T06:44:39.580Z,4.87
2019-05-30T06:47:10.219Z,5.17
2019-05-30T06:49:40.937Z,5.15
2019-05-30T06:52:11.524Z,5.42
2019-05-30T06:54:42.262Z,5.03
2019-05-30T06:57:13.280Z,5.10
2019-05-30T06:59:43.894Z,4.33
2019-05-30T07:02:14.665Z,4.90
2019-05-30T07:04:51.679Z,4.28
2019-05-30T07:07:17.837Z,4.90
2019-05-30T07:09:49.097Z,4.28
2019-05-30T07:12:19.782Z,4.33
2019-05-30T07:14:50.395Z,4.58
2019-05-30T07:17:21.010Z,4.22
2019-05-30T07:19:51.638Z,4.30
2019-05-30T07:22:23.468Z,4.03
2019-05-30T07:24:54.179Z,3.65
2019-05-30T07:27:25.839Z,3.35
2019-05-30T07:29:57.031Z,3.45
2019-05-30T07:32:27.973Z,4.05
2019-05-30T07:35:06.938Z,3.92
2019-05-30T07:37:32.346Z,2.95
2019-05-30T07:40:03.486Z,2.85
2019-05-30T07:42:34.797Z,3.42
2019-05-30T07:45:07.661Z,2.58
2019-05-30T07:47:38.600Z,2.65
2019-05-30T07:50:10.716Z,1.90
2019-05-30T07:52:41.430Z,2.67
2019-05-30T07:55:12.471Z,1.90
2019-05-30T07:57:43.024Z,1.82
2019-05-30T08:00:15.583Z,2.45
2019-05-30T08:02:46.354Z,1.82
2019-05-30T08:05:24.324Z,2.12
2019-05-30T08:07:49.655Z,1.85
2019-05-30T08:10:21.228Z,2.27
2019-05-30T08:12:51.923Z,1.90
2019-05-30T08:15:22.773Z,1.77
2019-05-30T08:17:54.060Z,1.45
2019-05-30T08:20:24.690Z,1.10
2019-05-30T08:22:55.287Z,1.82
2019-05-30T08:25:25.963Z,1.70
2019-05-30T08:27:56.550Z,1.30
2019-05-30T08:30:28.291Z,1.62
2019-05-30T08:32:58.989Z,1.60
2019-05-30T08:35:39.338Z,1.35
2019-05-30T08:38:02.200Z,1.65
2019-05-30T08:40:33.387Z,2.08
2019-05-30T08:43:04.024Z,1.60
2019-05-30T08:45:35.672Z,1.55
2019-05-30T08:48:08.012Z,1.50
2019-05-30T08:50:42.793Z,1.47
2019-05-30T08:53:11.946Z,1.98
2019-05-30T08:55:42.829Z,2.85
2019-05-30T08:58:13.548Z,1.95
2019-05-30T09:00:44.147Z,1.40
2019-05-30T09:03:14.774Z,1.40
2019-05-30T09:06:00.932Z,1.77
2019-05-30T09:08:17.823Z,1.75
2019-05-30T09:10:48.491Z,1.10
2019-05-30T09:13:19.001Z,1.50
2019-05-30T09:15:50.148Z,1.80
2019-05-30T09:18:20.946Z,1.52
2019-05-30T09:20:51.869Z,1.50
2019-05-30T09:23:22.947Z,1.70
2019-05-30T09:25:53.856Z,2.02
2019-05-30T09:28:24.536Z,1.62
2019-05-30T09:30:55.294Z,1.82
2019-05-30T09:33:26.189Z,1.92
2019-05-30T09:36:09.995Z,2.12
2019-05-30T09:38:29.074Z,1.62
2019-05-30T09:40:59.792Z,1.67
2019-05-30T09:43:30.399Z,1.52
2019-05-30T09:46:01.078Z,1.80
2019-05-30T09:48:31.683Z,1.30
2019-05-30T09:51:02.250Z,1.60
2019-05-30T09:53:32.869Z,1.90
2019-05-30T09:56:03.482Z,1.70
2019-05-30T09:58:34.227Z,1.07
2019-05-30T10:01:05.226Z,1.82
2019-05-30T10:03:36.013Z,1.40
2019-05-30T10:06:07.693Z,1.20
2019-05-30T10:08:38.336Z,1.57
2019-05-30T10:11:08.934Z,1.30
2019-05-30T10:13:39.539Z,1.47
2019-05-30T10:16:10.186Z,1.17
2019-05-30T10:18:41.283Z,1.10
2019-05-30T10:21:11.983Z,1.60
2019-05-30T10:23:42.682Z,1.70
2019-05-30T10:26:13.290Z,1.87
2019-05-30T10:28:44.980Z,1.45
2019-05-30T10:31:17.402Z,1.55
2019-05-30T10:33:49.360Z,1.62
2019-05-30T10:36:20.516Z,1.80
2019-05-30T10:38:52.200Z,1.50
2019-05-30T10:41:22.961Z,1.55
2019-05-30T10:43:53.675Z,1.35
2019-05-30T10:46:24.438Z,1.70
2019-05-30T10:48:56.732Z,1.30
2019-05-30T10:51:27.592Z,2.00
2019-05-30T10:53:59.110Z,1.60
2019-05-30T10:56:29.753Z,2.70
2019-05-30T10:59:01.199Z,1.82
2019-05-30T11:01:32.061Z,2.17
2019-05-30T11:04:02.751Z,1.95
2019-05-30T11:06:51.344Z,1.70
2019-05-30T11:09:18.692Z,1.98
2019-05-30T11:11:50.682Z,2.35
2019-05-30T11:14:21.496Z,1.95
2019-05-30T11:16:53.688Z,1.40
2019-05-30T11:19:24.613Z,1.95
2019-05-30T11:21:56.244Z,2.25
2019-05-30T11:24:26.876Z,2.35
2019-05-30T11:26:57.419Z,2.08
2019-05-30T11:29:28.005Z,2.00
2019-05-30T11:31:59.087Z,1.87
2019-05-30T11:34:29.819Z,2.65
2019-05-30T11:37:18.057Z,2.10
2019-05-30T11:39:32.767Z,1.90
2019-05-30T11:42:03.771Z,2.22
2019-05-30T11:44:34.377Z,2.40
2019-05-30T11:47:05.245Z,1.87
2019-05-30T11:49:35.918Z,2.58
2019-05-30T11:52:06.535Z,2.37
2019-05-30T11:54:37.070Z,1.37
2019-05-30T11:57:07.971Z,1.70
2019-05-30T11:59:38.663Z,1.70
2019-05-30T12:02:09.667Z,1.15
2019-05-30T12:04:40.630Z,1.72
2019-05-30T12:07:11.312Z,1.42
2019-05-30T12:09:41.978Z,1.35
2019-05-30T12:12:12.577Z,1.35
2019-05-30T12:14:43.186Z,1.37
2019-05-30T12:17:13.900Z,1.40
2019-05-30T12:19:45.560Z,1.37
2019-05-30T12:22:16.192Z,1.70
2019-05-30T12:24:46.739Z,1.80
2019-05-30T12:27:17.401Z,1.25
2019-05-30T12:29:48.158Z,1.67
2019-05-30T12:32:18.803Z,1.27
2019-05-30T12:34:49.393Z,1.32
2019-05-30T12:37:23.477Z,1.30
2019-05-30T12:39:52.541Z,1.37
2019-05-30T12:42:23.221Z,1.40
2019-05-30T12:44:54.959Z,1.77
2019-05-30T12:47:25.872Z,1.75
2019-05-30T12:49:57.158Z,1.10
2019-05-30T12:52:27.822Z,1.15
2019-05-30T12:54:58.521Z,1.32
2019-05-30T12:57:29.242Z,1.30
2019-05-30T13:00:00.960Z,2.12
2019-05-30T13:02:31.854Z,1.30
2019-05-30T13:05:03.120Z,1.20
2019-05-30T13:07:33.928Z,1.37
2019-05-30T13:10:05.054Z,1.50
2019-05-30T13:12:35.745Z,2.10
2019-05-30T13:15:06.606Z,1.15
2019-05-30T13:17:37.346Z,2.02
2019-05-30T13:20:08.871Z,1.50
2019-05-30T13:22:39.938Z,1.30
2019-05-30T13:25:12.755Z,1.40
2019-05-30T13:27:43.332Z,2.98
2019-05-30T13:30:14.420Z,1.50
2019-05-30T13:32:46.284Z,1.22
2019-05-30T13:35:16.867Z,1.37
2019-05-30T13:37:47.626Z,0.95
2019-05-30T13:40:24.815Z,1.45
2019-05-30T13:42:50.982Z,1.27
2019-05-30T13:45:21.662Z,1.07
2019-05-30T13:47:52.251Z,1.15
2019-05-30T13:50:23.072Z,1.30
2019-05-30T13:52:54.045Z,1.45
2019-05-30T13:55:27.529Z,1.82
2019-05-30T13:57:57.019Z,1.35
2019-05-30T14:00:28.211Z,1.22
2019-05-30T14:02:59.926Z,1.17
2019-05-30T14:05:30.675Z,1.20
2019-05-30T14:08:02.668Z,1.30
2019-05-30T14:10:33.817Z,1.07
2019-05-30T14:13:04.623Z,1.32
2019-05-30T14:15:35.639Z,1.07
2019-05-30T14:18:07.250Z,1.20
2019-05-30T14:20:38.087Z,1.40
2019-05-30T14:23:09.437Z,1.17
2019-05-30T14:25:40.130Z,1.87
2019-05-30T14:28:12.106Z,1.47
2019-05-30T14:30:42.910Z,1.35
2019-05-30T14:33:13.640Z,1.35
2019-05-30T14:35:44.304Z,1.10
2019-05-30T14:38:15.117Z,1.35
2019-05-30T14:40:45.742Z,1.15
2019-05-30T14:43:16.389Z,1.27
2019-05-30T14:45:46.909Z,1.17
2019-05-30T14:48:17.535Z,1.12
2019-05-30T14:50:49.304Z,1.15
2019-05-30T14:53:20.061Z,1.17
2019-05-30T14:55:50.724Z,1.37
2019-05-30T14:58:21.283Z,1.60
2019-05-30T15:00:51.827Z,1.77
2019-05-30T15:03:22.521Z,1.10
2019-05-30T15:05:53.239Z,1.60
2019-05-30T15:08:23.992Z,1.25
2019-05-30T15:10:54.668Z,1.30
2019-05-30T15:13:25.246Z,1.80
2019-05-30T15:15:57.135Z,1.12
2019-05-30T15:18:28.380Z,1.70
2019-05-30T15:20:59.051Z,1.07
2019-05-30T15:23:29.701Z,1.10
2019-05-30T15:26:00.348Z,1.82
2019-05-30T15:28:32.330Z,1.27
2019-05-30T15:31:03.046Z,1.40
2019-05-30T15:33:33.694Z,1.25
2019-05-30T15:36:04.271Z,1.25
2019-05-30T15:38:35.064Z,1.20
2019-05-30T15:41:17.531Z,1.47
2019-05-30T15:43:48.234Z,1.35
2019-05-30T15:46:19.987Z,1.07
2019-05-30T15:48:50.755Z,1.07
2019-05-30T15:51:21.499Z,1.30
2019-05-30T15:53:52.104Z,1.27
2019-05-30T15:56:23.790Z,1.32
2019-05-30T15:58:54.434Z,1.07
2019-05-30T16:01:25.703Z,1.60
2019-05-30T16:03:56.352Z,1.00
2019-05-30T16:06:27.068Z,0.80
2019-05-30T16:08:57.832Z,1.47
2019-05-30T16:11:28.354Z,1.25
2019-05-30T16:13:58.902Z,1.25
2019-05-30T16:16:39.678Z,1.40
2019-05-30T16:19:15.056Z,1.00
2019-05-30T16:21:34.572Z,1.25
2019-05-30T16:24:05.215Z,1.32
2019-05-30T16:26:35.970Z,1.27
2019-05-30T16:29:06.726Z,1.00
2019-05-30T16:31:37.297Z,1.32
2019-05-30T16:34:07.896Z,1.15
2019-05-30T16:36:38.580Z,1.40
2019-05-30T16:39:09.379Z,1.52
2019-05-30T16:41:42.947Z,1.60
2019-05-30T16:44:12.351Z,1.32
2019-05-30T16:46:43.094Z,1.20
2019-05-30T16:49:14.348Z,1.22
2019-05-30T16:51:45.431Z,1.05
2019-05-30T16:54:17.095Z,1.35
2019-05-30T16:56:47.881Z,1.45
2019-05-30T16:59:18.635Z,1.30
2019-05-30T17:01:57.656Z,1.72
2019-05-30T17:04:22.943Z,1.42
2019-05-30T17:06:54.824Z,1.45
2019-05-30T17:09:25.482Z,1.30
2019-05-30T17:11:56.072Z,1.30
2019-05-30T17:14:26.808Z,1.50
2019-05-30T17:16:57.488Z,1.77
2019-05-30T17:19:28.089Z,1.57
2019-05-30T17:21:58.795Z,1.22
2019-05-30T17:24:29.473Z,1.22
2019-05-30T17:27:00.170Z,1.35
2019-05-30T17:29:30.777Z,1.50
2019-05-30T17:32:01.477Z,1.65
2019-05-30T17:34:32.075Z,1.15
2019-05-30T17:37:06.441Z,1.30
2019-05-30T17:39:37.122Z,1.07
2019-05-30T17:42:07.744Z,1.52
2019-05-30T17:44:38.472Z,1.50
2019-05-30T17:47:09.201Z,1.70
2019-05-30T17:49:39.983Z,2.02
2019-05-30T17:52:10.748Z,1.40
2019-05-30T17:54:43.318Z,1.25
2019-05-30T17:57:13.647Z,2.15
2019-05-30T17:59:44.276Z,1.40
2019-05-30T18:02:15.048Z,2.02
2019-05-30T18:04:45.642Z,1.57
2019-05-30T18:07:16.358Z,1.20
2019-05-30T18:09:47.256Z,1.65
2019-05-30T18:12:17.936Z,1.20
2019-05-30T18:14:48.476Z,1.72
2019-05-30T18:17:19.239Z,1.95
2019-05-30T18:19:49.821Z,1.82
2019-05-30T18:22:21.436Z,2.00
2019-05-30T18:24:52.627Z,1.77
2019-05-30T18:27:23.920Z,2.25
2019-05-30T18:29:54.656Z,1.20
2019-05-30T18:32:26.424Z,1.22
2019-05-30T18:34:57.597Z,1.82
2019-05-30T18:37:30.495Z,1.50
2019-05-30T18:40:01.403Z,1.47
2019-05-30T18:42:33.649Z,1.70
2019-05-30T18:45:06.673Z,1.47
2019-05-30T18:47:37.372Z,1.50
2019-05-30T18:50:08.168Z,1.55
2019-05-30T18:52:38.817Z,1.27
2019-05-30T18:55:09.806Z,1.42
2019-05-30T18:57:40.522Z,1.60
2019-05-30T19:00:14.961Z,2.40
2019-05-30T19:02:45.552Z,1.17
2019-05-30T19:05:16.317Z,1.40
2019-05-30T19:07:47.158Z,1.45
2019-05-30T19:10:17.863Z,1.22
2019-05-30T19:12:48.553Z,1.35
2019-05-30T19:15:21.033Z,1.90
2019-05-30T19:17:51.785Z,1.72
2019-05-30T19:20:25.503Z,2.10
2019-05-30T19:22:56.255Z,1.57
2019-05-30T19:25:27.268Z,1.50
2019-05-30T19:27:58.377Z,2.08
2019-05-30T19:30:29.046Z,2.12
2019-05-30T19:32:59.692Z,2.10
2019-05-30T19:35:31.353Z,1.60
2019-05-30T19:38:02.371Z,1.70
2019-05-30T19:40:33.680Z,1.50
2019-05-30T19:43:04.390Z,1.80
2019-05-30T19:45:38.294Z,1.70
2019-05-30T19:48:09.397Z,1.70
2019-05-30T19:50:39.949Z,2.40
2019-05-30T19:53:10.617Z,2.02
2019-05-30T19:55:41.326Z,1.65
2019-05-30T19:58:12.463Z,1.75
2019-05-30T20:00:57.461Z,2.47
2019-05-30T20:03:15.791Z,1.95
2019-05-30T20:05:46.757Z,2.30
2019-05-30T20:08:17.521Z,2.30
2019-05-30T20:10:48.251Z,1.98
2019-05-30T20:13:18.893Z,2.02
2019-05-30T20:15:49.569Z,2.17
2019-05-30T20:18:20.255Z,2.20
2019-05-30T20:20:57.553Z,3.27
2019-05-30T20:23:23.329Z,1.85
2019-05-30T20:25:54.049Z,2.05
2019-05-30T20:28:24.771Z,1.87
2019-05-30T20:30:55.574Z,1.90
2019-05-30T20:33:26.286Z,2.02
2019-05-30T20:35:57.143Z,1.80
2019-05-30T20:38:27.823Z,2.30
2019-05-30T20:40:58.492Z,2.20
2019-05-30T20:43:29.348Z,2.42
2019-05-30T20:46:00.147Z,2.02
2019-05-30T20:48:30.972Z,2.42
2019-05-30T20:51:01.716Z,2.62
2019-05-30T20:53:32.422Z,2.25
2019-05-30T20:56:03.054Z,2.80
2019-05-30T20:58:33.770Z,2.90
2019-05-30T21:01:04.669Z,2.40
2019-05-30T21:03:35.714Z,2.75
2019-05-30T21:06:06.394Z,4.15
2019-05-30T21:08:39.025Z,2.75
2019-05-30T21:11:10.895Z,2.83
2019-05-30T21:13:42.346Z,2.52
2019-05-30T21:16:15.813Z,2.55
2019-05-30T21:18:47.479Z,2.00
2019-05-30T21:21:18.062Z,2.30
2019-05-30T21:23:48.874Z,2.37
2019-05-30T21:26:19.530Z,2.52
2019-05-30T21:28:50.154Z,2.87
2019-05-30T21:31:20.790Z,2.85
2019-05-30T21:33:51.596Z,2.37
2019-05-30T21:36:26.354Z,3.17
2019-05-30T21:38:54.938Z,2.05
2019-05-30T21:41:25.501Z,2.67
2019-05-30T21:43:56.030Z,2.60
2019-05-30T21:46:26.588Z,2.75
2019-05-30T21:48:57.420Z,2.50
2019-05-30T21:51:28.066Z,2.62
2019-05-30T21:53:58.970Z,2.05
2019-05-30T21:56:29.779Z,2.37
2019-05-30T21:59:00.441Z,2.77
2019-05-30T22:01:37.116Z,2.72
2019-05-30T22:04:08.747Z,2.30
2019-05-30T22:06:40.723Z,2.15
2019-05-30T22:09:11.745Z,2.55
2019-05-30T22:11:43.633Z,2.22
2019-05-30T22:14:14.546Z,1.98
2019-05-30T22:16:45.907Z,2.08
2019-05-30T22:19:17.229Z,2.90
2019-05-30T22:21:48.619Z,2.27
2019-05-30T22:24:19.624Z,1.98
2019-05-30T22:26:50.726Z,2.47
2019-05-30T22:29:21.921Z,1.98
2019-05-30T22:31:53.563Z,2.10
2019-05-30T22:34:24.722Z,2.47
2019-05-30T22:36:55.447Z,2.22
2019-05-30T22:39:26.123Z,2.50
2019-05-30T22:41:56.789Z,2.20
2019-05-30T22:44:27.421Z,2.75
2019-05-30T22:46:58.114Z,2.40
2019-05-30T22:49:28.963Z,2.90
2019-05-30T22:51:59.673Z,1.85
2019-05-30T22:54:30.334Z,2.15
2019-05-30T22:57:01.506Z,2.47
2019-05-30T22:59:32.270Z,2.20
2019-05-30T23:02:02.985Z,2.70
2019-05-30T23:04:33.976Z,2.20
2019-05-30T23:07:04.672Z,2.40
2019-05-30T23:09:35.445Z,2.12
2019-05-30T23:12:06.447Z,2.83
2019-05-30T23:14:37.108Z,2.45
2019-05-30T23:17:07.862Z,2.75
2019-05-30T23:19:38.946Z,2.45
2019-05-30T23:22:09.606Z,2.60
2019-05-30T23:24:40.333Z,2.65
2019-05-30T23:27:11.058Z,2.90
2019-05-30T23:29:41.773Z,2.17
2019-05-30T23:32:12.814Z,2.65
2019-05-30T23:34:43.470Z,2.72
2019-05-30T23:37:14.149Z,2.12
2019-05-30T23:39:44.868Z,2.92
2019-05-30T23:42:15.625Z,3.00
2019-05-30T23:44:46.319Z,3.05
2019-05-30T23:47:17.342Z,2.47
2019-05-30T23:49:48.134Z,2.75
2019-05-30T23:52:20.035Z,3.00
2019-05-30T23:54:56.357Z,3.02
2019-05-30T23:57:27.598Z,2.45
2019-05-30T23:59:58.831Z,2.55
